sensor_id;sensor_type;location;lat;lon;timestamp;temperature;humidity
20158;DHT22;10239;56.820;24.416;2022-12-18T00:01:37;-7.60;99.90
20158;DHT22;10239;56.820;24.416;2022-12-18T00:04:06;-7.50;99.90
20158;DHT22;10239;56.820;24.416;2022-12-18T00:06:35;-7.50;99.90
20158;DHT22;10239;56.820;24.416;2022-12-18T00:09:03;-7.70;99.90
20158;DHT22;10239;56.820;24.416;2022-12-18T00:11:32;-7.80;99.90
20158;DHT22;10239;56.820;24.416;2022-12-18T00:14:00;-8.10;99.90
20158;DHT22;10239;56.820;24.416;2022-12-18T00:16:28;-8.10;99.90
20158;DHT22;10239;56.820;24.416;2022-12-18T00:18:59;-8.00;99.90
20158;DHT22;10239;56.820;24.416;2022-12-18T00:21:28;-8.20;99.90
20158;DHT22;10239;56.820;24.416;2022-12-18T00:23:56;-8.30;99.90
20158;DHT22;10239;56.820;24.416;2022-12-18T00:26:27;-8.20;99.90
20158;DHT22;10239;56.820;24.416;2022-12-18T00:29:05;-8.20;99.90
20158;DHT22;10239;56.820;24.416;2022-12-18T00:31:33;-8.20;99.90
20158;DHT22;10239;56.820;24.416;2022-12-18T00:34:01;-8.40;99.90
20158;DHT22;10239;56.820;24.416;2022-12-18T00:36:31;-8.30;99.90
20158;DHT22;10239;56.820;24.416;2022-12-18T00:39:04;-8.40;99.90
20158;DHT22;10239;56.820;24.416;2022-12-18T00:41:32;-8.40;99.90
20158;DHT22;10239;56.820;24.416;2022-12-18T00:44:19;-8.70;99.90
20158;DHT22;10239;56.820;24.416;2022-12-18T00:46:47;-8.60;99.90
20158;DHT22;10239;56.820;24.416;2022-12-18T00:49:17;-8.30;99.90
20158;DHT22;10239;56.820;24.416;2022-12-18T00:51:46;-8.50;99.90
20158;DHT22;10239;56.820;24.416;2022-12-18T00:54:14;-8.80;99.90
20158;DHT22;10239;56.820;24.416;2022-12-18T00:56:42;-8.80;99.90
20158;DHT22;10239;56.820;24.416;2022-12-18T00:59:18;-8.70;99.90
20158;DHT22;10239;56.820;24.416;2022-12-18T01:01:46;-8.50;99.90
20158;DHT22;10239;56.820;24.416;2022-12-18T01:04:14;-8.70;99.90
20158;DHT22;10239;56.820;24.416;2022-12-18T01:06:44;-8.60;99.90
20158;DHT22;10239;56.820;24.416;2022-12-18T01:09:12;-8.50;99.90
20158;DHT22;10239;56.820;24.416;2022-12-18T01:11:40;-8.50;99.90
20158;DHT22;10239;56.820;24.416;2022-12-18T01:14:07;-8.50;99.90
20158;DHT22;10239;56.820;24.416;2022-12-18T01:16:37;-8.60;99.90
20158;DHT22;10239;56.820;24.416;2022-12-18T01:19:04;-8.60;99.90
20158;DHT22;10239;56.820;24.416;2022-12-18T01:21:32;-8.60;99.90
20158;DHT22;10239;56.820;24.416;2022-12-18T01:24:03;-8.50;99.90
20158;DHT22;10239;56.820;24.416;2022-12-18T01:26:31;-8.50;99.90
20158;DHT22;10239;56.820;24.416;2022-12-18T01:28:58;-8.50;99.90
20158;DHT22;10239;56.820;24.416;2022-12-18T01:31:28;-8.40;99.90
20158;DHT22;10239;56.820;24.416;2022-12-18T01:33:57;-8.20;99.90
20158;DHT22;10239;56.820;24.416;2022-12-18T01:36:35;-8.00;99.90
20158;DHT22;10239;56.820;24.416;2022-12-18T01:39:10;-7.80;99.90
20158;DHT22;10239;56.820;24.416;2022-12-18T01:41:42;-7.90;99.90
20158;DHT22;10239;56.820;24.416;2022-12-18T01:48:07;-7.90;99.90
20158;DHT22;10239;56.820;24.416;2022-12-18T01:50:40;-8.20;99.90
20158;DHT22;10239;56.820;24.416;2022-12-18T01:53:18;-8.40;99.90
20158;DHT22;10239;56.820;24.416;2022-12-18T01:55:52;-8.30;99.90
20158;DHT22;10239;56.820;24.416;2022-12-18T01:58:57;-8.40;99.90
20158;DHT22;10239;56.820;24.416;2022-12-18T02:01:16;-8.30;99.90
20158;DHT22;10239;56.820;24.416;2022-12-18T02:03:45;-8.20;99.90
20158;DHT22;10239;56.820;24.416;2022-12-18T02:06:36;-8.20;99.90
20158;DHT22;10239;56.820;24.416;2022-12-18T02:09:26;-7.90;99.90
20158;DHT22;10239;56.820;24.416;2022-12-18T02:12:10;-8.10;99.90
20158;DHT22;10239;56.820;24.416;2022-12-18T02:15:05;-7.80;99.90
20158;DHT22;10239;56.820;24.416;2022-12-18T02:17:43;-7.70;99.90
20158;DHT22;10239;56.820;24.416;2022-12-18T02:20:31;-7.70;99.90
20158;DHT22;10239;56.820;24.416;2022-12-18T02:23:38;-7.70;99.90
20158;DHT22;10239;56.820;24.416;2022-12-18T02:29:05;-8.30;99.90
20158;DHT22;10239;56.820;24.416;2022-12-18T02:31:40;-8.60;99.90
20158;DHT22;10239;56.820;24.416;2022-12-18T02:34:11;-8.50;99.90
20158;DHT22;10239;56.820;24.416;2022-12-18T02:36:41;-8.40;99.90
20158;DHT22;10239;56.820;24.416;2022-12-18T02:39:13;-8.40;99.90
20158;DHT22;10239;56.820;24.416;2022-12-18T02:41:55;-8.40;99.90
20158;DHT22;10239;56.820;24.416;2022-12-18T02:44:24;-8.30;99.90
20158;DHT22;10239;56.820;24.416;2022-12-18T02:46:54;-8.20;99.90
20158;DHT22;10239;56.820;24.416;2022-12-18T02:58:10;-8.30;99.90
20158;DHT22;10239;56.820;24.416;2022-12-18T03:00:48;-8.30;99.90
20158;DHT22;10239;56.820;24.416;2022-12-18T03:03:27;-8.20;99.90
20158;DHT22;10239;56.820;24.416;2022-12-18T03:06:04;-8.30;99.90
20158;DHT22;10239;56.820;24.416;2022-12-18T03:08:42;-8.20;99.90
20158;DHT22;10239;56.820;24.416;2022-12-18T03:11:13;-8.10;99.90
20158;DHT22;10239;56.820;24.416;2022-12-18T03:16:26;-8.20;99.90
20158;DHT22;10239;56.820;24.416;2022-12-18T03:19:01;-8.10;99.90
20158;DHT22;10239;56.820;24.416;2022-12-18T03:21:42;-8.00;99.90
20158;DHT22;10239;56.820;24.416;2022-12-18T03:24:10;-7.90;99.90
20158;DHT22;10239;56.820;24.416;2022-12-18T03:26:43;-7.70;99.90
20158;DHT22;10239;56.820;24.416;2022-12-18T03:29:33;-7.60;99.90
20158;DHT22;10239;56.820;24.416;2022-12-18T03:32:27;-7.70;99.90
20158;DHT22;10239;56.820;24.416;2022-12-18T03:35:02;-7.60;99.90
20158;DHT22;10239;56.820;24.416;2022-12-18T03:37:35;-7.50;99.90
20158;DHT22;10239;56.820;24.416;2022-12-18T03:40:03;-7.40;99.90
20158;DHT22;10239;56.820;24.416;2022-12-18T03:45:34;-7.30;99.90
20158;DHT22;10239;56.820;24.416;2022-12-18T03:48:31;-7.40;99.90
20158;DHT22;10239;56.820;24.416;2022-12-18T03:54:02;-7.30;99.90
20158;DHT22;10239;56.820;24.416;2022-12-18T03:56:44;-7.60;99.90
20158;DHT22;10239;56.820;24.416;2022-12-18T03:59:15;-7.50;99.90
20158;DHT22;10239;56.820;24.416;2022-12-18T04:01:47;-7.30;99.90
20158;DHT22;10239;56.820;24.416;2022-12-18T04:04:18;-7.30;99.90
20158;DHT22;10239;56.820;24.416;2022-12-18T04:06:48;-7.70;99.90
20158;DHT22;10239;56.820;24.416;2022-12-18T04:09:19;-8.10;99.90
20158;DHT22;10239;56.820;24.416;2022-12-18T04:11:48;-8.10;99.90
20158;DHT22;10239;56.820;24.416;2022-12-18T04:14:16;-7.80;99.90
20158;DHT22;10239;56.820;24.416;2022-12-18T04:16:48;-7.90;99.90
20158;DHT22;10239;56.820;24.416;2022-12-18T04:19:18;-8.30;99.90
20158;DHT22;10239;56.820;24.416;2022-12-18T04:21:49;-8.10;99.90
20158;DHT22;10239;56.820;24.416;2022-12-18T04:24:16;-7.90;99.90
20158;DHT22;10239;56.820;24.416;2022-12-18T04:26:57;-8.10;99.90
20158;DHT22;10239;56.820;24.416;2022-12-18T04:29:30;-7.90;99.90
20158;DHT22;10239;56.820;24.416;2022-12-18T04:31:58;-8.00;99.90
20158;DHT22;10239;56.820;24.416;2022-12-18T04:34:28;-8.00;99.90
20158;DHT22;10239;56.820;24.416;2022-12-18T04:36:56;-8.00;99.90
20158;DHT22;10239;56.820;24.416;2022-12-18T04:39:25;-8.00;99.90
20158;DHT22;10239;56.820;24.416;2022-12-18T04:41:55;-8.10;99.90
20158;DHT22;10239;56.820;24.416;2022-12-18T04:44:23;-8.50;99.90
20158;DHT22;10239;56.820;24.416;2022-12-18T04:46:50;-8.60;99.90
20158;DHT22;10239;56.820;24.416;2022-12-18T04:49:18;-8.70;99.90
20158;DHT22;10239;56.820;24.416;2022-12-18T04:51:45;-8.70;99.90
20158;DHT22;10239;56.820;24.416;2022-12-18T04:54:13;-8.80;99.90
20158;DHT22;10239;56.820;24.416;2022-12-18T04:56:40;-8.70;99.90
20158;DHT22;10239;56.820;24.416;2022-12-18T04:59:08;-8.40;99.90
20158;DHT22;10239;56.820;24.416;2022-12-18T05:01:35;-8.30;99.90
20158;DHT22;10239;56.820;24.416;2022-12-18T05:04:03;-8.40;99.90
20158;DHT22;10239;56.820;24.416;2022-12-18T05:06:31;-8.60;99.90
20158;DHT22;10239;56.820;24.416;2022-12-18T05:08:59;-8.60;99.90
20158;DHT22;10239;56.820;24.416;2022-12-18T05:11:26;-8.60;99.90
20158;DHT22;10239;56.820;24.416;2022-12-18T05:13:57;-8.50;99.90
20158;DHT22;10239;56.820;24.416;2022-12-18T05:16:24;-8.50;99.90
20158;DHT22;10239;56.820;24.416;2022-12-18T05:18:52;-8.50;99.90
20158;DHT22;10239;56.820;24.416;2022-12-18T05:21:21;-8.40;99.90
20158;DHT22;10239;56.820;24.416;2022-12-18T05:23:48;-8.40;99.90
20158;DHT22;10239;56.820;24.416;2022-12-18T05:26:17;-8.40;99.90
20158;DHT22;10239;56.820;24.416;2022-12-18T05:28:45;-8.50;99.90
20158;DHT22;10239;56.820;24.416;2022-12-18T05:31:13;-8.40;99.90
20158;DHT22;10239;56.820;24.416;2022-12-18T05:33:41;-8.30;99.90
20158;DHT22;10239;56.820;24.416;2022-12-18T05:36:12;-8.50;99.90
20158;DHT22;10239;56.820;24.416;2022-12-18T05:38:40;-8.60;99.90
20158;DHT22;10239;56.820;24.416;2022-12-18T05:41:08;-8.60;99.90
20158;DHT22;10239;56.820;24.416;2022-12-18T05:43:38;-8.60;99.90
20158;DHT22;10239;56.820;24.416;2022-12-18T05:46:08;-8.70;99.90
20158;DHT22;10239;56.820;24.416;2022-12-18T05:48:38;-8.80;99.90
20158;DHT22;10239;56.820;24.416;2022-12-18T05:51:11;-8.70;99.90
20158;DHT22;10239;56.820;24.416;2022-12-18T05:53:39;-8.80;99.90
20158;DHT22;10239;56.820;24.416;2022-12-18T05:56:10;-9.00;99.90
20158;DHT22;10239;56.820;24.416;2022-12-18T05:58:38;-9.10;99.90
20158;DHT22;10239;56.820;24.416;2022-12-18T06:01:17;-9.20;99.90
20158;DHT22;10239;56.820;24.416;2022-12-18T06:03:45;-9.30;99.90
20158;DHT22;10239;56.820;24.416;2022-12-18T06:06:19;-9.10;99.90
20158;DHT22;10239;56.820;24.416;2022-12-18T06:08:47;-9.00;99.90
20158;DHT22;10239;56.820;24.416;2022-12-18T06:11:20;-9.00;99.90
20158;DHT22;10239;56.820;24.416;2022-12-18T06:13:55;-9.10;99.90
20158;DHT22;10239;56.820;24.416;2022-12-18T06:16:26;-9.10;99.90
20158;DHT22;10239;56.820;24.416;2022-12-18T06:18:59;-9.10;99.90
20158;DHT22;10239;56.820;24.416;2022-12-18T06:21:28;-9.10;99.90
20158;DHT22;10239;56.820;24.416;2022-12-18T06:23:57;-9.20;99.90
20158;DHT22;10239;56.820;24.416;2022-12-18T06:26:25;-9.20;99.90
20158;DHT22;10239;56.820;24.416;2022-12-18T06:28:54;-9.40;99.90
20158;DHT22;10239;56.820;24.416;2022-12-18T06:31:22;-9.60;99.90
20158;DHT22;10239;56.820;24.416;2022-12-18T06:33:50;-9.50;99.90
20158;DHT22;10239;56.820;24.416;2022-12-18T06:36:17;-9.50;99.90
20158;DHT22;10239;56.820;24.416;2022-12-18T06:38:45;-9.70;99.90
20158;DHT22;10239;56.820;24.416;2022-12-18T06:41:17;-9.70;99.90
20158;DHT22;10239;56.820;24.416;2022-12-18T06:43:45;-9.50;99.90
20158;DHT22;10239;56.820;24.416;2022-12-18T06:46:14;-9.50;99.90
20158;DHT22;10239;56.820;24.416;2022-12-18T06:48:41;-9.60;99.90
20158;DHT22;10239;56.820;24.416;2022-12-18T06:51:09;-9.50;99.90
20158;DHT22;10239;56.820;24.416;2022-12-18T06:53:37;-9.40;99.90
20158;DHT22;10239;56.820;24.416;2022-12-18T06:56:06;-9.30;99.90
20158;DHT22;10239;56.820;24.416;2022-12-18T06:58:38;-9.20;99.90
20158;DHT22;10239;56.820;24.416;2022-12-18T07:01:08;-9.20;99.90
20158;DHT22;10239;56.820;24.416;2022-12-18T07:03:37;-9.20;99.90
20158;DHT22;10239;56.820;24.416;2022-12-18T07:06:06;-9.10;99.90
20158;DHT22;10239;56.820;24.416;2022-12-18T07:08:33;-8.90;99.90
20158;DHT22;10239;56.820;24.416;2022-12-18T07:11:04;-8.90;99.90
20158;DHT22;10239;56.820;24.416;2022-12-18T07:13:32;-8.80;99.90
20158;DHT22;10239;56.820;24.416;2022-12-18T07:16:14;-8.60;99.90
20158;DHT22;10239;56.820;24.416;2022-12-18T07:18:52;-8.40;99.90
20158;DHT22;10239;56.820;24.416;2022-12-18T07:21:20;-8.30;99.90
20158;DHT22;10239;56.820;24.416;2022-12-18T07:23:47;-8.20;99.90
20158;DHT22;10239;56.820;24.416;2022-12-18T07:26:17;-8.30;99.90
20158;DHT22;10239;56.820;24.416;2022-12-18T07:28:46;-8.80;99.90
20158;DHT22;10239;56.820;24.416;2022-12-18T07:31:16;-8.90;99.90
20158;DHT22;10239;56.820;24.416;2022-12-18T07:33:44;-8.90;99.90
20158;DHT22;10239;56.820;24.416;2022-12-18T07:36:13;-8.80;99.90
20158;DHT22;10239;56.820;24.416;2022-12-18T07:38:40;-8.40;99.90
20158;DHT22;10239;56.820;24.416;2022-12-18T07:41:10;-8.10;99.90
20158;DHT22;10239;56.820;24.416;2022-12-18T07:43:39;-7.80;99.90
20158;DHT22;10239;56.820;24.416;2022-12-18T07:46:08;-7.10;99.90
20158;DHT22;10239;56.820;24.416;2022-12-18T07:48:39;-7.00;99.90
20158;DHT22;10239;56.820;24.416;2022-12-18T07:51:07;-6.90;99.90
20158;DHT22;10239;56.820;24.416;2022-12-18T07:53:35;-5.90;99.90
20158;DHT22;10239;56.820;24.416;2022-12-18T07:56:06;-5.10;99.90
20158;DHT22;10239;56.820;24.416;2022-12-18T07:58:54;-4.50;99.90
20158;DHT22;10239;56.820;24.416;2022-12-18T08:01:22;-3.60;99.90
20158;DHT22;10239;56.820;24.416;2022-12-18T08:03:50;-3.60;99.90
20158;DHT22;10239;56.820;24.416;2022-12-18T08:06:18;-3.10;99.90
20158;DHT22;10239;56.820;24.416;2022-12-18T08:08:54;-2.70;99.90
20158;DHT22;10239;56.820;24.416;2022-12-18T08:11:24;-2.60;99.90
20158;DHT22;10239;56.820;24.416;2022-12-18T08:13:52;-2.30;99.90
20158;DHT22;10239;56.820;24.416;2022-12-18T08:16:21;-2.00;99.90
20158;DHT22;10239;56.820;24.416;2022-12-18T08:18:51;-1.50;99.90
20158;DHT22;10239;56.820;24.416;2022-12-18T08:21:22;-1.20;99.90
20158;DHT22;10239;56.820;24.416;2022-12-18T08:23:54;-1.20;99.90
20158;DHT22;10239;56.820;24.416;2022-12-18T08:26:22;-1.00;99.90
20158;DHT22;10239;56.820;24.416;2022-12-18T08:28:50;-0.60;99.90
20158;DHT22;10239;56.820;24.416;2022-12-18T08:31:19;-0.50;99.90
20158;DHT22;10239;56.820;24.416;2022-12-18T08:33:51;-0.20;99.90
20158;DHT22;10239;56.820;24.416;2022-12-18T08:36:21;-0.30;99.90
20158;DHT22;10239;56.820;24.416;2022-12-18T08:38:50;-0.10;99.90
20158;DHT22;10239;56.820;24.416;2022-12-18T08:41:18;-0.40;99.90
20158;DHT22;10239;56.820;24.416;2022-12-18T08:43:46;0.00;99.90
20158;DHT22;10239;56.820;24.416;2022-12-18T08:46:40;0.20;99.90
20158;DHT22;10239;56.820;24.416;2022-12-18T08:49:09;-0.20;99.90
20158;DHT22;10239;56.820;24.416;2022-12-18T08:51:37;0.00;99.90
20158;DHT22;10239;56.820;24.416;2022-12-18T08:54:05;-0.30;99.90
20158;DHT22;10239;56.820;24.416;2022-12-18T08:56:33;-0.10;99.90
20158;DHT22;10239;56.820;24.416;2022-12-18T08:59:01;-0.10;99.90
20158;DHT22;10239;56.820;24.416;2022-12-18T09:01:28;0.20;99.90
20158;DHT22;10239;56.820;24.416;2022-12-18T09:03:57;0.40;99.90
20158;DHT22;10239;56.820;24.416;2022-12-18T09:06:24;0.80;99.90
20158;DHT22;10239;56.820;24.416;2022-12-18T09:08:53;0.40;99.90
20158;DHT22;10239;56.820;24.416;2022-12-18T09:11:23;0.30;99.90
20158;DHT22;10239;56.820;24.416;2022-12-18T09:13:51;0.30;99.90
20158;DHT22;10239;56.820;24.416;2022-12-18T09:16:19;0.40;99.90
20158;DHT22;10239;56.820;24.416;2022-12-18T09:18:47;0.50;99.90
20158;DHT22;10239;56.820;24.416;2022-12-18T09:21:17;0.70;99.90
20158;DHT22;10239;56.820;24.416;2022-12-18T09:23:53;0.60;99.90
20158;DHT22;10239;56.820;24.416;2022-12-18T09:26:22;0.60;99.90
20158;DHT22;10239;56.820;24.416;2022-12-18T09:28:49;0.80;99.90
20158;DHT22;10239;56.820;24.416;2022-12-18T09:31:19;0.70;99.90
20158;DHT22;10239;56.820;24.416;2022-12-18T09:33:46;0.60;99.90
20158;DHT22;10239;56.820;24.416;2022-12-18T09:36:16;0.20;99.90
20158;DHT22;10239;56.820;24.416;2022-12-18T09:38:45;0.80;99.90
20158;DHT22;10239;56.820;24.416;2022-12-18T09:41:50;0.70;99.90
20158;DHT22;10239;56.820;24.416;2022-12-18T09:44:30;0.60;99.90
20158;DHT22;10239;56.820;24.416;2022-12-18T09:47:06;0.50;99.90
20158;DHT22;10239;56.820;24.416;2022-12-18T09:49:56;0.90;99.90
20158;DHT22;10239;56.820;24.416;2022-12-18T09:55:34;0.90;99.90
20158;DHT22;10239;56.820;24.416;2022-12-18T10:00:46;0.90;99.90
20158;DHT22;10239;56.820;24.416;2022-12-18T10:03:15;0.70;99.90
20158;DHT22;10239;56.820;24.416;2022-12-18T10:08:51;0.70;99.90
20158;DHT22;10239;56.820;24.416;2022-12-18T10:11:43;0.30;99.90
20158;DHT22;10239;56.820;24.416;2022-12-18T10:14:43;0.60;99.90
20158;DHT22;10239;56.820;24.416;2022-12-18T10:19:51;0.40;99.90
20158;DHT22;10239;56.820;24.416;2022-12-18T10:27:42;0.40;99.90
20158;DHT22;10239;56.820;24.416;2022-12-18T10:30:16;0.10;99.90
20158;DHT22;10239;56.820;24.416;2022-12-18T10:32:44;-0.70;99.90
20158;DHT22;10239;56.820;24.416;2022-12-18T10:35:18;-1.00;99.90
20158;DHT22;10239;56.820;24.416;2022-12-18T10:38:19;-1.10;99.90
20158;DHT22;10239;56.820;24.416;2022-12-18T10:41:04;-0.80;99.90
20158;DHT22;10239;56.820;24.416;2022-12-18T10:43:36;-0.70;99.90
20158;DHT22;10239;56.820;24.416;2022-12-18T10:51:27;-0.20;99.90
20158;DHT22;10239;56.820;24.416;2022-12-18T10:54:14;-0.20;99.90
20158;DHT22;10239;56.820;24.416;2022-12-18T10:56:43;-0.50;99.90
20158;DHT22;10239;56.820;24.416;2022-12-18T10:59:14;-0.70;99.90
20158;DHT22;10239;56.820;24.416;2022-12-18T11:04:19;-0.60;99.90
20158;DHT22;10239;56.820;24.416;2022-12-18T11:07:00;-0.90;99.90
20158;DHT22;10239;56.820;24.416;2022-12-18T11:09:33;-1.10;99.90
20158;DHT22;10239;56.820;24.416;2022-12-18T11:14:53;-1.20;99.90
20158;DHT22;10239;56.820;24.416;2022-12-18T11:17:35;-1.40;99.90
20158;DHT22;10239;56.820;24.416;2022-12-18T11:20:19;-1.90;99.90
20158;DHT22;10239;56.820;24.416;2022-12-18T11:23:02;-2.10;99.90
20158;DHT22;10239;56.820;24.416;2022-12-18T11:25:32;-2.40;99.90
20158;DHT22;10239;56.820;24.416;2022-12-18T11:28:28;-2.50;99.90
20158;DHT22;10239;56.820;24.416;2022-12-18T11:31:21;-2.50;99.90
20158;DHT22;10239;56.820;24.416;2022-12-18T11:34:08;-2.50;99.90
20158;DHT22;10239;56.820;24.416;2022-12-18T11:36:58;-2.60;99.90
20158;DHT22;10239;56.820;24.416;2022-12-18T11:39:46;-2.50;99.90
20158;DHT22;10239;56.820;24.416;2022-12-18T11:42:38;-2.60;99.90
20158;DHT22;10239;56.820;24.416;2022-12-18T11:53:04;-2.90;99.90
20158;DHT22;10239;56.820;24.416;2022-12-18T11:58:51;-3.30;99.90
20158;DHT22;10239;56.820;24.416;2022-12-18T12:29:09;-3.10;99.90
20158;DHT22;10239;56.820;24.416;2022-12-18T12:37:56;-3.10;99.90
20158;DHT22;10239;56.820;24.416;2022-12-18T12:40:28;-3.10;99.90
20158;DHT22;10239;56.820;24.416;2022-12-18T12:46:13;-3.00;99.90
20158;DHT22;10239;56.820;24.416;2022-12-18T12:49:02;-3.10;99.90
20158;DHT22;10239;56.820;24.416;2022-12-18T12:51:40;-3.20;99.90
20158;DHT22;10239;56.820;24.416;2022-12-18T12:54:18;-3.20;99.90
20158;DHT22;10239;56.820;24.416;2022-12-18T12:59:57;-3.10;99.90
20158;DHT22;10239;56.820;24.416;2022-12-18T13:02:56;-3.10;99.90
20158;DHT22;10239;56.820;24.416;2022-12-18T13:08:06;-3.40;99.90
20158;DHT22;10239;56.820;24.416;2022-12-18T13:10:42;-3.50;99.90
20158;DHT22;10239;56.820;24.416;2022-12-18T13:13:12;-3.50;99.90
20158;DHT22;10239;56.820;24.416;2022-12-18T13:16:04;-3.50;99.90
20158;DHT22;10239;56.820;24.416;2022-12-18T13:18:33;-3.50;99.90
20158;DHT22;10239;56.820;24.416;2022-12-18T13:21:09;-3.60;99.90
20158;DHT22;10239;56.820;24.416;2022-12-18T13:23:37;-3.60;99.90
20158;DHT22;10239;56.820;24.416;2022-12-18T13:34:24;-3.60;99.90
20158;DHT22;10239;56.820;24.416;2022-12-18T13:37:33;-3.60;99.90
20158;DHT22;10239;56.820;24.416;2022-12-18T13:39:45;-3.60;99.90
20158;DHT22;10239;56.820;24.416;2022-12-18T13:45:01;-3.80;99.90
20158;DHT22;10239;56.820;24.416;2022-12-18T13:47:36;-3.70;99.90
20158;DHT22;10239;56.820;24.416;2022-12-18T13:50:22;-3.70;99.90
20158;DHT22;10239;56.820;24.416;2022-12-18T13:52:51;-3.80;99.90
20158;DHT22;10239;56.820;24.416;2022-12-18T13:55:20;-3.80;99.90
20158;DHT22;10239;56.820;24.416;2022-12-18T13:57:49;-3.80;99.90
20158;DHT22;10239;56.820;24.416;2022-12-18T14:00:25;-3.70;99.90
20158;DHT22;10239;56.820;24.416;2022-12-18T14:02:59;-3.70;99.90
20158;DHT22;10239;56.820;24.416;2022-12-18T14:05:33;-3.80;99.90
20158;DHT22;10239;56.820;24.416;2022-12-18T14:08:12;-3.90;99.90
20158;DHT22;10239;56.820;24.416;2022-12-18T14:10:45;-3.90;99.90
20158;DHT22;10239;56.820;24.416;2022-12-18T14:15:49;-3.90;99.90
20158;DHT22;10239;56.820;24.416;2022-12-18T14:18:22;-3.90;99.90
20158;DHT22;10239;56.820;24.416;2022-12-18T14:20:52;-3.80;99.90
20158;DHT22;10239;56.820;24.416;2022-12-18T14:23:39;-3.90;99.90
20158;DHT22;10239;56.820;24.416;2022-12-18T14:26:26;-3.90;99.90
20158;DHT22;10239;56.820;24.416;2022-12-18T14:28:58;-3.90;99.90
20158;DHT22;10239;56.820;24.416;2022-12-18T14:31:30;-4.00;99.90
20158;DHT22;10239;56.820;24.416;2022-12-18T14:33:58;-4.00;99.90
20158;DHT22;10239;56.820;24.416;2022-12-18T14:36:28;-4.00;99.90
20158;DHT22;10239;56.820;24.416;2022-12-18T14:38:57;-4.00;99.90
20158;DHT22;10239;56.820;24.416;2022-12-18T14:41:25;-4.00;99.90
20158;DHT22;10239;56.820;24.416;2022-12-18T14:43:54;-4.10;99.90
20158;DHT22;10239;56.820;24.416;2022-12-18T14:46:38;-4.00;99.90
20158;DHT22;10239;56.820;24.416;2022-12-18T14:49:31;-4.10;99.90
20158;DHT22;10239;56.820;24.416;2022-12-18T14:52:03;-4.10;99.90
20158;DHT22;10239;56.820;24.416;2022-12-18T14:54:31;-4.00;99.90
20158;DHT22;10239;56.820;24.416;2022-12-18T14:57:13;-4.00;99.90
20158;DHT22;10239;56.820;24.416;2022-12-18T14:59:43;-4.00;99.90
20158;DHT22;10239;56.820;24.416;2022-12-18T15:02:15;-4.00;99.90
20158;DHT22;10239;56.820;24.416;2022-12-18T15:04:46;-4.00;99.90
20158;DHT22;10239;56.820;24.416;2022-12-18T15:07:22;-4.10;99.90
20158;DHT22;10239;56.820;24.416;2022-12-18T15:10:15;-4.10;99.90
20158;DHT22;10239;56.820;24.416;2022-12-18T15:20:50;-4.00;99.90
20158;DHT22;10239;56.820;24.416;2022-12-18T15:23:24;-4.00;99.90
20158;DHT22;10239;56.820;24.416;2022-12-18T15:25:57;-3.90;99.90
20158;DHT22;10239;56.820;24.416;2022-12-18T15:28:45;-3.90;99.90
20158;DHT22;10239;56.820;24.416;2022-12-18T15:33:59;-3.90;99.90
20158;DHT22;10239;56.820;24.416;2022-12-18T15:36:27;-3.90;99.90
20158;DHT22;10239;56.820;24.416;2022-12-18T15:38:57;-3.90;99.90
20158;DHT22;10239;56.820;24.416;2022-12-18T15:41:34;-3.80;99.90
20158;DHT22;10239;56.820;24.416;2022-12-18T15:44:03;-3.80;99.90
20158;DHT22;10239;56.820;24.416;2022-12-18T15:46:43;-3.80;99.90
20158;DHT22;10239;56.820;24.416;2022-12-18T15:49:10;-3.70;99.90
20158;DHT22;10239;56.820;24.416;2022-12-18T15:51:39;-3.60;99.90
20158;DHT22;10239;56.820;24.416;2022-12-18T15:54:12;-3.50;99.90
20158;DHT22;10239;56.820;24.416;2022-12-18T15:56:41;-3.50;99.90
20158;DHT22;10239;56.820;24.416;2022-12-18T15:59:27;-3.40;99.90
20158;DHT22;10239;56.820;24.416;2022-12-18T16:01:56;-3.30;99.90
20158;DHT22;10239;56.820;24.416;2022-12-18T16:04:24;-3.30;99.90
20158;DHT22;10239;56.820;24.416;2022-12-18T16:06:53;-3.30;99.90
20158;DHT22;10239;56.820;24.416;2022-12-18T16:09:41;-3.20;99.90
20158;DHT22;10239;56.820;24.416;2022-12-18T16:12:18;-3.10;99.90
20158;DHT22;10239;56.820;24.416;2022-12-18T16:14:46;-3.00;99.90
20158;DHT22;10239;56.820;24.416;2022-12-18T16:17:14;-2.90;99.90
20158;DHT22;10239;56.820;24.416;2022-12-18T16:19:44;-2.80;99.90
20158;DHT22;10239;56.820;24.416;2022-12-18T16:22:24;-2.70;99.90
20158;DHT22;10239;56.820;24.416;2022-12-18T16:24:53;-2.70;99.90
20158;DHT22;10239;56.820;24.416;2022-12-18T16:27:22;-2.70;99.90
20158;DHT22;10239;56.820;24.416;2022-12-18T16:29:50;-2.60;99.90
20158;DHT22;10239;56.820;24.416;2022-12-18T16:32:20;-2.60;99.90
20158;DHT22;10239;56.820;24.416;2022-12-18T16:34:49;-2.50;99.90
20158;DHT22;10239;56.820;24.416;2022-12-18T16:37:17;-2.50;99.90
20158;DHT22;10239;56.820;24.416;2022-12-18T16:39:44;-2.30;99.90
20158;DHT22;10239;56.820;24.416;2022-12-18T16:42:15;-2.30;99.90
20158;DHT22;10239;56.820;24.416;2022-12-18T16:44:48;-2.20;99.90
20158;DHT22;10239;56.820;24.416;2022-12-18T16:47:16;-2.20;99.90
20158;DHT22;10239;56.820;24.416;2022-12-18T16:49:47;-2.20;99.90
20158;DHT22;10239;56.820;24.416;2022-12-18T16:52:18;-2.10;99.90
20158;DHT22;10239;56.820;24.416;2022-12-18T16:54:45;-2.10;99.90
20158;DHT22;10239;56.820;24.416;2022-12-18T16:57:15;-2.00;99.90
20158;DHT22;10239;56.820;24.416;2022-12-18T16:59:44;-1.90;99.90
20158;DHT22;10239;56.820;24.416;2022-12-18T17:02:17;-1.90;99.90
20158;DHT22;10239;56.820;24.416;2022-12-18T17:04:53;-1.90;99.90
20158;DHT22;10239;56.820;24.416;2022-12-18T17:07:21;-1.80;99.90
20158;DHT22;10239;56.820;24.416;2022-12-18T17:09:49;-1.80;99.90
20158;DHT22;10239;56.820;24.416;2022-12-18T17:12:18;-1.70;99.90
20158;DHT22;10239;56.820;24.416;2022-12-18T17:14:46;-1.60;99.90
20158;DHT22;10239;56.820;24.416;2022-12-18T17:17:15;-1.60;99.90
20158;DHT22;10239;56.820;24.416;2022-12-18T17:19:50;-1.60;99.90
20158;DHT22;10239;56.820;24.416;2022-12-18T17:22:20;-1.60;99.90
20158;DHT22;10239;56.820;24.416;2022-12-18T17:24:50;-1.50;99.90
20158;DHT22;10239;56.820;24.416;2022-12-18T17:27:18;-1.50;99.90
20158;DHT22;10239;56.820;24.416;2022-12-18T17:29:46;-1.40;99.90
20158;DHT22;10239;56.820;24.416;2022-12-18T17:32:16;-1.30;99.90
20158;DHT22;10239;56.820;24.416;2022-12-18T17:34:44;-1.20;99.90
20158;DHT22;10239;56.820;24.416;2022-12-18T17:37:12;-1.10;99.90
20158;DHT22;10239;56.820;24.416;2022-12-18T17:39:40;-1.00;99.90
20158;DHT22;10239;56.820;24.416;2022-12-18T17:42:08;-0.90;99.90
20158;DHT22;10239;56.820;24.416;2022-12-18T17:44:43;-0.90;99.90
20158;DHT22;10239;56.820;24.416;2022-12-18T17:47:12;-0.90;99.90
20158;DHT22;10239;56.820;24.416;2022-12-18T17:49:40;-0.90;99.90
20158;DHT22;10239;56.820;24.416;2022-12-18T17:52:08;-0.80;99.90
20158;DHT22;10239;56.820;24.416;2022-12-18T17:54:37;-0.80;99.90
20158;DHT22;10239;56.820;24.416;2022-12-18T17:57:07;-0.70;99.90
20158;DHT22;10239;56.820;24.416;2022-12-18T17:59:35;-0.70;99.90
20158;DHT22;10239;56.820;24.416;2022-12-18T18:02:02;-0.70;99.90